Time;durP1;ratioP1;P1;durP2;ratioP2;P2;SDS_P1;SDS_P2;PMS_P1;PMS_P2;Temp;Humidity;BMP_temperature;BMP_pressure;BME280_temperature;BME280_humidity;BME280_pressure;Samples;Min_cycle;Max_cycle;Signal;HPM_P1;HPM_P2
2021/10/29 00:00:17;;;;;;;14.33;11.60;;;4.80;99.90;;;;;;5005923;28;20270;-69
2021/10/29 00:02:42;;;;;;;15.20;11.97;;;4.80;99.90;;;;;;5038692;28;20186;-69
2021/10/29 00:05:08;;;;;;;16.17;12.57;;;4.60;99.90;;;;;;5032541;28;20978;-69
2021/10/29 00:07:34;;;;;;;12.67;11.07;;;4.60;99.90;;;;;;5003958;28;20227;-69
2021/10/29 00:10:00;;;;;;;17.83;10.60;;;4.80;99.90;;;;;;5004223;28;20184;-69
2021/10/29 00:12:26;;;;;;;13.80;11.40;;;4.50;99.90;;;;;;5029195;28;20198;-69
2021/10/29 00:14:52;;;;;;;15.02;10.98;;;4.50;99.90;;;;;;5029982;28;20438;-69
2021/10/29 00:17:19;;;;;;;15.70;10.70;;;4.60;99.90;;;;;;5005444;28;20199;-71
2021/10/29 00:19:45;;;;;;;16.17;10.48;;;4.40;99.90;;;;;;5005658;28;20438;-69
2021/10/29 00:22:11;;;;;;;11.10;9.70;;;4.40;99.90;;;;;;5024691;28;20186;-70
2021/10/29 00:24:37;;;;;;;14.02;11.70;;;4.40;99.90;;;;;;5053367;28;20965;-70
2021/10/29 00:27:03;;;;;;;16.80;11.00;;;4.20;99.90;;;;;;5026536;28;20215;-69
2021/10/29 00:29:29;;;;;;;11.27;10.10;;;4.30;99.90;;;;;;5010428;28;20184;-70
2021/10/29 00:31:54;;;;;;;14.57;10.80;;;4.40;99.90;;;;;;5015901;28;20276;-68
2021/10/29 00:34:20;;;;;;;12.97;10.03;;;4.40;99.90;;;;;;5051334;28;20212;-69
2021/10/29 00:36:45;;;;;;;14.57;11.10;;;4.50;99.90;;;;;;5042973;28;20254;-69
2021/10/29 00:39:11;;;;;;;15.60;11.37;;;4.30;99.90;;;;;;5010498;28;20258;-69
2021/10/29 00:41:37;;;;;;;13.00;11.63;;;4.60;99.90;;;;;;5026865;28;20269;-70
2021/10/29 00:44:04;;;;;;;14.70;10.13;;;4.40;99.90;;;;;;5047592;28;20194;-69
2021/10/29 00:46:30;;;;;;;13.75;10.63;;;4.40;99.90;;;;;;5015121;28;20550;-71
2021/10/29 00:48:55;;;;;;;11.37;9.27;;;4.40;99.90;;;;;;5015134;28;20191;-69
2021/10/29 00:51:22;;;;;;;15.73;10.77;;;4.50;99.90;;;;;;5032988;28;20446;-69
2021/10/29 00:53:48;;;;;;;15.02;10.80;;;4.20;99.90;;;;;;5035929;28;20179;-70
2021/10/29 00:56:14;;;;;;;12.48;9.50;;;4.50;99.90;;;;;;5010144;28;20200;-70
2021/10/29 00:58:39;;;;;;;14.07;10.45;;;4.50;99.90;;;;;;5014970;28;20190;-69
2021/10/29 01:01:05;;;;;;;12.83;10.07;;;4.50;99.90;;;;;;5037277;28;20186;-69
2021/10/29 01:03:31;;;;;;;15.60;10.50;;;4.50;99.90;;;;;;5053416;28;20213;-70
2021/10/29 01:05:57;;;;;;;14.07;11.03;;;4.40;99.90;;;;;;5052365;28;20735;-69
2021/10/29 01:08:23;;;;;;;13.20;10.30;;;4.40;99.90;;;;;;5015756;28;21003;-69
2021/10/29 01:10:50;;;;;;;13.03;10.10;;;4.30;99.90;;;;;;5028009;28;20324;-70
2021/10/29 01:13:17;;;;;;;13.88;9.77;;;4.10;99.90;;;;;;5027889;28;20198;-68
2021/10/29 01:15:43;;;;;;;12.95;10.50;;;4.30;99.90;;;;;;5027716;28;20187;-70
2021/10/29 01:18:09;;;;;;;13.90;10.45;;;4.30;99.90;;;;;;5031174;28;20242;-70
2021/10/29 01:20:34;;;;;;;14.13;9.80;;;4.40;99.90;;;;;;5019803;28;20195;-69
2021/10/29 01:23:00;;;;;;;15.53;11.00;;;4.40;99.90;;;;;;5009836;28;20278;-70
2021/10/29 01:25:26;;;;;;;13.57;9.80;;;4.20;99.90;;;;;;5012013;28;20184;-69
2021/10/29 01:27:52;;;;;;;15.43;10.18;;;4.20;99.90;;;;;;5015635;28;20545;-69
2021/10/29 01:30:17;;;;;;;14.20;9.97;;;4.10;99.90;;;;;;5033864;28;20191;-69
2021/10/29 01:32:43;;;;;;;15.00;10.77;;;4.20;99.90;;;;;;5030447;28;20187;-69
2021/10/29 01:35:11;;;;;;;11.00;9.60;;;4.10;99.90;;;;;;5028514;28;20338;-69
2021/10/29 01:37:39;;;;;;;13.23;9.80;;;4.10;99.90;;;;;;5030920;28;20437;-71
2021/10/29 01:40:12;;;;;;;14.75;9.90;;;3.90;99.90;;;;;;5029001;28;20191;-69
2021/10/29 01:42:38;;;;;;;15.10;10.82;;;3.90;99.90;;;;;;5029827;28;20187;-69
2021/10/29 01:45:05;;;;;;;14.77;11.27;;;4.00;99.90;;;;;;5023476;28;20244;-69
2021/10/29 01:47:31;;;;;;;13.77;10.93;;;3.90;99.90;;;;;;5029104;28;20226;-69
2021/10/29 01:49:57;;;;;;;13.70;9.70;;;3.80;99.90;;;;;;5025932;28;20702;-69
2021/10/29 01:52:22;;;;;;;12.13;9.63;;;4.00;99.90;;;;;;5027840;28;20226;-69
2021/10/29 01:54:48;;;;;;;13.90;8.93;;;4.10;99.90;;;;;;5039615;28;20178;-70
2021/10/29 01:57:13;;;;;;;11.83;8.70;;;4.00;99.90;;;;;;5021134;28;20179;-69
2021/10/29 01:59:39;;;;;;;11.73;9.57;;;4.00;99.90;;;;;;5024124;28;20221;-69
2021/10/29 02:02:05;;;;;;;14.50;10.33;;;4.20;99.90;;;;;;5025998;28;20229;-70
2021/10/29 02:04:30;;;;;;;12.00;9.60;;;4.10;99.90;;;;;;5045945;28;20609;-69
2021/10/29 02:06:56;;;;;;;11.17;9.80;;;4.10;99.90;;;;;;5034795;28;20299;-72
2021/10/29 02:09:22;;;;;;;13.00;9.73;;;3.90;99.90;;;;;;5005510;28;20197;-72
2021/10/29 02:11:48;;;;;;;12.97;10.13;;;4.10;99.90;;;;;;5005884;28;20187;-70
2021/10/29 02:14:13;;;;;;;16.73;10.10;;;4.00;99.90;;;;;;5016912;28;20187;-69
2021/10/29 02:16:40;;;;;;;15.13;10.93;;;4.20;99.90;;;;;;5027787;28;20568;-70
2021/10/29 02:19:05;;;;;;;13.88;10.07;;;4.20;99.90;;;;;;5025511;28;20195;-69
2021/10/29 02:21:31;;;;;;;11.10;9.23;;;4.20;99.90;;;;;;5026800;28;20262;-71
2021/10/29 02:23:58;;;;;;;11.57;8.93;;;4.00;99.90;;;;;;5026049;28;20191;-69
2021/10/29 02:26:24;;;;;;;10.82;8.43;;;4.30;99.90;;;;;;5019010;28;20632;-70
2021/10/29 02:28:50;;;;;;;10.98;9.30;;;4.30;99.90;;;;;;5030491;28;20248;-70
2021/10/29 02:31:16;;;;;;;12.80;9.47;;;4.10;99.90;;;;;;5040391;28;20671;-70
2021/10/29 02:33:42;;;;;;;11.45;8.88;;;4.10;99.90;;;;;;5025568;28;20635;-70
2021/10/29 02:36:08;;;;;;;10.17;8.30;;;3.80;99.90;;;;;;5024069;28;20260;-69
2021/10/29 02:38:33;;;;;;;11.32;9.15;;;3.80;99.90;;;;;;5026540;28;20184;-69
2021/10/29 02:41:01;;;;;;;10.83;9.03;;;3.80;99.90;;;;;;5005190;28;20241;-72
2021/10/29 02:43:27;;;;;;;12.70;10.10;;;4.00;99.90;;;;;;5024978;28;20316;-69
2021/10/29 02:45:53;;;;;;;12.97;9.23;;;3.80;99.90;;;;;;5048304;28;20313;-69
2021/10/29 02:48:18;;;;;;;11.07;9.63;;;4.10;99.90;;;;;;5036311;28;20639;-70
2021/10/29 02:50:44;;;;;;;13.23;9.83;;;3.80;99.90;;;;;;5022050;28;20410;-69
2021/10/29 02:53:09;;;;;;;10.83;9.60;;;4.10;99.90;;;;;;5024533;28;20190;-70
2021/10/29 02:55:35;;;;;;;12.57;9.63;;;3.80;99.90;;;;;;5021587;28;20206;-70
2021/10/29 02:58:03;;;;;;;15.48;9.75;;;3.60;99.90;;;;;;5011619;28;20546;-70
2021/10/29 03:00:28;;;;;;;13.63;9.98;;;3.70;99.90;;;;;;5022774;28;20188;-69
2021/10/29 03:02:54;;;;;;;10.40;8.70;;;3.90;99.90;;;;;;5007114;28;20527;-70
2021/10/29 03:05:19;;;;;;;12.30;8.97;;;3.60;99.90;;;;;;5003209;28;20638;-69
2021/10/29 03:07:45;;;;;;;12.97;10.43;;;3.90;99.90;;;;;;5003814;28;20633;-70
2021/10/29 03:10:12;;;;;;;11.75;8.63;;;3.90;99.90;;;;;;5026830;28;20199;-70
2021/10/29 03:12:38;;;;;;;11.18;9.27;;;3.80;99.90;;;;;;5003425;28;20739;-70
2021/10/29 03:15:05;;;;;;;11.48;8.70;;;3.80;99.90;;;;;;5003370;28;20184;-70
2021/10/29 03:17:31;;;;;;;12.23;9.02;;;3.80;99.90;;;;;;5012074;28;20211;-70
2021/10/29 03:19:56;;;;;;;12.67;9.00;;;3.70;99.90;;;;;;5039009;28;20593;-70
2021/10/29 03:22:22;;;;;;;12.33;8.70;;;3.50;99.90;;;;;;5018884;28;20187;-72
2021/10/29 03:24:48;;;;;;;12.23;9.70;;;3.50;99.90;;;;;;5004802;28;20267;-69
2021/10/29 03:27:13;;;;;;;14.57;9.87;;;3.50;99.90;;;;;;5003995;28;20223;-69
2021/10/29 03:29:39;;;;;;;11.07;9.03;;;3.50;99.90;;;;;;5015646;28;20189;-68
2021/10/29 03:32:06;;;;;;;12.95;9.02;;;3.50;99.90;;;;;;5018881;28;20541;-69
2021/10/29 03:34:31;;;;;;;9.82;8.57;;;3.50;99.90;;;;;;5013050;28;20233;-68
2021/10/29 03:36:57;;;;;;;10.83;8.10;;;3.50;99.90;;;;;;5015753;28;20219;-69
2021/10/29 03:39:32;;;;;;;10.53;8.70;;;3.50;99.90;;;;;;5006799;28;20187;-68
2021/10/29 03:41:59;;;;;;;11.32;9.15;;;3.50;99.90;;;;;;5047047;28;20267;-68
2021/10/29 03:44:42;;;;;;;10.43;8.95;;;3.50;99.90;;;;;;5047146;28;20194;-68
2021/10/29 03:47:08;;;;;;;11.70;8.73;;;3.70;99.90;;;;;;5016852;28;20593;-68
2021/10/29 03:49:40;;;;;;;11.37;9.03;;;3.80;99.90;;;;;;5046372;28;20190;-68
2021/10/29 03:52:17;;;;;;;10.73;8.10;;;3.90;99.90;;;;;;5022091;28;20192;-69
2021/10/29 03:54:46;;;;;;;10.48;8.77;;;3.50;99.90;;;;;;5012794;28;20242;-69
2021/10/29 03:57:25;;;;;;;10.70;8.10;;;3.70;99.90;;;;;;5044177;28;20202;-69
2021/10/29 03:59:53;;;;;;;9.05;7.50;;;3.40;99.90;;;;;;5009113;28;20196;-69
2021/10/29 04:02:19;;;;;;;8.93;7.10;;;3.60;99.90;;;;;;5006212;28;20195;-69
2021/10/29 04:04:45;;;;;;;8.85;7.70;;;3.30;99.90;;;;;;5017356;28;20187;-69
2021/10/29 04:07:10;;;;;;;9.87;7.90;;;3.20;99.90;;;;;;5045420;28;20241;-68
2021/10/29 04:09:36;;;;;;;10.27;8.43;;;3.30;99.90;;;;;;5011662;28;21300;-70
2021/10/29 04:12:02;;;;;;;9.63;8.65;;;3.30;99.90;;;;;;5017024;28;20187;-68
2021/10/29 04:14:29;;;;;;;8.97;7.77;;;3.20;99.90;;;;;;5045907;28;20248;-68
2021/10/29 04:16:55;;;;;;;9.88;8.10;;;3.10;99.90;;;;;;5045400;28;20456;-69
2021/10/29 04:19:21;;;;;;;12.35;8.60;;;3.20;99.90;;;;;;5024048;28;20186;-69
2021/10/29 04:21:47;;;;;;;12.38;8.10;;;3.30;99.90;;;;;;5026940;28;20237;-69
2021/10/29 04:24:13;;;;;;;12.37;9.13;;;3.40;99.90;;;;;;5008536;28;20822;-70
2021/10/29 04:26:40;;;;;;;9.80;7.60;;;3.10;99.90;;;;;;5027637;28;20488;-68
2021/10/29 04:29:17;;;;;;;10.95;8.90;;;3.10;99.90;;;;;;5030464;28;20206;-68
2021/10/29 04:31:49;;;;;;;10.88;8.25;;;3.20;99.90;;;;;;5017140;28;20191;-68
2021/10/29 04:34:20;;;;;;;12.50;9.23;;;3.20;99.90;;;;;;5037363;28;20190;-68
2021/10/29 04:36:47;;;;;;;9.95;8.88;;;3.20;99.90;;;;;;5025356;28;20229;-68
2021/10/29 04:39:13;;;;;;;9.60;7.95;;;3.20;99.90;;;;;;5038141;28;21299;-69
2021/10/29 04:41:41;;;;;;;8.48;7.47;;;3.20;99.90;;;;;;5019149;28;20557;-70
2021/10/29 04:44:07;;;;;;;11.68;8.65;;;3.10;99.90;;;;;;5026704;28;20317;-69
2021/10/29 04:46:33;;;;;;;10.52;8.05;;;3.20;99.90;;;;;;5041909;28;20229;-67
2021/10/29 04:48:58;;;;;;;12.10;8.83;;;3.20;99.90;;;;;;5030346;28;20329;-68
2021/10/29 04:51:24;;;;;;;10.93;7.70;;;3.20;99.90;;;;;;5024047;28;20223;-68
2021/10/29 04:53:50;;;;;;;12.17;9.00;;;3.20;99.90;;;;;;5012362;28;20202;-68
2021/10/29 04:56:16;;;;;;;10.57;8.70;;;3.20;99.90;;;;;;5026697;28;20210;-68
2021/10/29 04:58:42;;;;;;;11.95;8.70;;;3.20;99.90;;;;;;5038341;28;20191;-70
2021/10/29 05:01:07;;;;;;;13.63;8.97;;;3.30;99.90;;;;;;5027310;28;20201;-68
2021/10/29 05:03:33;;;;;;;9.20;7.43;;;3.40;99.90;;;;;;5028598;28;20733;-68
2021/10/29 05:05:59;;;;;;;12.67;8.93;;;3.20;99.90;;;;;;5037643;28;20231;-69
2021/10/29 05:08:24;;;;;;;10.57;7.63;;;3.00;99.90;;;;;;5039611;28;20191;-69
2021/10/29 05:10:50;;;;;;;10.70;8.57;;;3.10;99.90;;;;;;5036499;28;20193;-69
2021/10/29 05:13:16;;;;;;;11.90;8.40;;;3.20;99.90;;;;;;5025523;28;20193;-67
2021/10/29 05:15:42;;;;;;;12.40;9.10;;;3.20;99.90;;;;;;5028711;28;20452;-66
2021/10/29 05:18:13;;;;;;;12.13;8.67;;;3.10;99.90;;;;;;5049127;28;20433;-68
2021/10/29 05:20:39;;;;;;;11.27;9.02;;;2.90;99.90;;;;;;5042345;28;20186;-67
2021/10/29 05:23:04;;;;;;;10.57;8.07;;;2.80;99.90;;;;;;5018818;28;20569;-65
2021/10/29 05:25:30;;;;;;;11.77;8.80;;;3.20;99.90;;;;;;5032509;28;20214;-66
2021/10/29 05:27:55;;;;;;;9.00;7.47;;;2.90;99.90;;;;;;5033118;28;20202;-66
2021/10/29 05:30:21;;;;;;;10.13;8.50;;;3.00;99.90;;;;;;5029731;28;20200;-65
2021/10/29 05:32:46;;;;;;;14.33;8.10;;;2.90;99.90;;;;;;5025210;28;20202;-66
2021/10/29 05:35:12;;;;;;;11.80;8.53;;;3.00;99.90;;;;;;5049814;28;20197;-66
2021/10/29 05:37:38;;;;;;;10.67;9.27;;;3.10;99.90;;;;;;5039600;28;20183;-66
2021/10/29 05:40:05;;;;;;;10.60;8.05;;;2.90;99.90;;;;;;5039519;28;20191;-64
2021/10/29 05:42:31;;;;;;;8.90;8.00;;;3.20;99.90;;;;;;5026231;28;20179;-65
2021/10/29 05:44:56;;;;;;;13.23;8.67;;;3.10;99.90;;;;;;5010292;28;20574;-70
2021/10/29 05:47:22;;;;;;;10.93;8.77;;;3.20;99.90;;;;;;5018613;28;20246;-66
2021/10/29 05:49:48;;;;;;;12.67;8.30;;;3.10;99.90;;;;;;5030226;28;20183;-68
2021/10/29 05:52:20;;;;;;;9.20;7.60;;;2.90;99.90;;;;;;5027724;28;20444;-68
2021/10/29 05:57:19;;;;;;;12.57;8.60;;;2.90;99.90;;;;;;5028249;28;20183;-68
2021/10/29 05:59:44;;;;;;;9.73;7.40;;;2.90;99.90;;;;;;5013037;28;20207;-69
2021/10/29 06:02:10;;;;;;;9.30;7.60;;;3.00;99.90;;;;;;5010554;28;20214;-68
2021/10/29 06:04:35;;;;;;;11.07;8.20;;;2.90;99.90;;;;;;5009749;28;20192;-68
2021/10/29 06:07:01;;;;;;;12.00;8.47;;;3.00;99.90;;;;;;5007771;28;20327;-69
2021/10/29 06:09:28;;;;;;;11.57;8.00;;;2.90;99.90;;;;;;5022012;28;20302;-68
2021/10/29 06:11:54;;;;;;;10.40;7.57;;;3.00;99.90;;;;;;5027487;28;20618;-68
2021/10/29 06:14:20;;;;;;;9.02;7.72;;;2.90;99.90;;;;;;5030865;28;20187;-70
2021/10/29 06:16:46;;;;;;;11.63;9.43;;;3.10;99.90;;;;;;5019810;28;20190;-69
2021/10/29 06:19:12;;;;;;;11.90;8.90;;;3.10;99.90;;;;;;5020281;28;20500;-68
2021/10/29 06:21:49;;;;;;;9.02;7.80;;;3.20;99.90;;;;;;5023876;28;20210;-70
2021/10/29 06:24:16;;;;;;;10.90;8.30;;;3.10;99.90;;;;;;5024373;28;20239;-71
2021/10/29 06:26:59;;;;;;;11.00;7.97;;;2.90;99.90;;;;;;5021180;28;20219;-69
2021/10/29 06:29:24;;;;;;;13.13;8.52;;;3.20;99.90;;;;;;5028661;28;20658;-68
2021/10/29 06:31:50;;;;;;;11.47;8.20;;;3.10;99.90;;;;;;5013079;28;20184;-68
2021/10/29 06:34:16;;;;;;;9.30;6.83;;;3.20;99.90;;;;;;5004221;28;20413;-68
2021/10/29 06:36:41;;;;;;;10.23;7.57;;;3.30;99.90;;;;;;5009337;28;20654;-69
2021/10/29 06:39:08;;;;;;;10.37;7.27;;;3.50;99.90;;;;;;4998633;28;20242;-69
2021/10/29 06:41:34;;;;;;;10.35;7.60;;;3.50;99.90;;;;;;5021103;28;20191;-69
2021/10/29 06:59:10;;;;;;;10.80;7.72;;;3.70;99.90;;;;;;5007125;28;20202;-70
2021/10/29 07:11:43;;;;;;;10.13;8.20;;;5.20;99.90;;;;;;4993553;28;20239;-69
2021/10/29 07:41:35;;;;;;;26.98;21.98;;;8.10;99.90;;;;;;5005746;28;20733;-68
2021/10/29 07:44:02;;;;;;;29.05;22.85;;;8.20;99.90;;;;;;5014819;28;20186;-69
2021/10/29 07:46:30;;;;;;;23.33;18.40;;;8.50;99.90;;;;;;5018760;28;20218;-69
2021/10/29 07:48:56;;;;;;;26.50;18.38;;;8.60;99.90;;;;;;5020897;28;20195;-67
2021/10/29 07:51:22;;;;;;;23.50;14.40;;;8.80;99.90;;;;;;5010799;28;20199;-68
2021/10/29 07:53:47;;;;;;;19.37;13.50;;;9.00;99.90;;;;;;5007974;28;20192;-70
2021/10/29 07:56:13;;;;;;;15.03;12.60;;;9.40;99.90;;;;;;5019876;28;20187;-67
2021/10/29 07:58:40;;;;;;;14.13;11.87;;;9.80;99.90;;;;;;5018173;28;20979;-69
2021/10/29 08:01:06;;;;;;;10.98;9.93;;;10.10;99.90;;;;;;5015307;28;20221;-70
2021/10/29 08:03:31;;;;;;;11.18;10.18;;;10.30;99.90;;;;;;5044368;28;20214;-69
2021/10/29 08:05:57;;;;;;;10.90;9.20;;;10.50;99.90;;;;;;5022384;28;20304;-68
2021/10/29 08:08:23;;;;;;;13.80;11.53;;;11.10;99.90;;;;;;5022531;28;20181;-70
2021/10/29 08:10:49;;;;;;;10.60;9.30;;;11.10;99.90;;;;;;5017623;28;21186;-68
2021/10/29 08:13:15;;;;;;;11.10;9.95;;;11.70;99.90;;;;;;5035893;28;20183;-67
2021/10/29 08:15:42;;;;;;;13.07;11.60;;;12.00;99.90;;;;;;5019406;28;20594;-69
2021/10/29 08:18:09;;;;;;;9.75;8.82;;;12.00;99.90;;;;;;5022958;28;20628;-68
2021/10/29 08:20:36;;;;;;;9.90;8.90;;;12.20;99.90;;;;;;5019524;28;20203;-69
2021/10/29 08:23:04;;;;;;;9.05;8.15;;;12.60;99.90;;;;;;5014539;28;20253;-67
2021/10/29 08:25:29;;;;;;;10.77;9.10;;;12.60;99.90;;;;;;5024718;28;20187;-69
2021/10/29 08:27:56;;;;;;;10.80;9.57;;;12.60;99.90;;;;;;5018385;28;20733;-67
2021/10/29 08:30:23;;;;;;;10.15;9.10;;;12.90;99.90;;;;;;5017228;28;20623;-72
2021/10/29 08:32:50;;;;;;;9.20;8.30;;;13.20;99.90;;;;;;5023199;28;20632;-68
2021/10/29 08:35:17;;;;;;;10.40;9.30;;;13.40;99.90;;;;;;5021840;28;20426;-67
2021/10/29 08:37:43;;;;;;;9.67;8.77;;;13.70;99.90;;;;;;5021980;28;20439;-67
2021/10/29 08:40:10;;;;;;;9.07;8.30;;;13.60;99.90;;;;;;5006501;28;20444;-70
2021/10/29 08:42:36;;;;;;;9.67;8.10;;;13.60;99.90;;;;;;5007914;28;20435;-69
2021/10/29 08:45:08;;;;;;;10.20;8.87;;;14.10;99.90;;;;;;5006107;28;20442;-68
2021/10/29 08:47:40;;;;;;;9.50;8.63;;;14.40;99.90;;;;;;5039046;28;20828;-68
2021/10/29 08:50:08;;;;;;;8.60;7.80;;;15.30;99.90;;;;;;5030543;28;20446;-68
2021/10/29 08:52:34;;;;;;;9.97;8.97;;;16.30;99.90;;;;;;5024047;28;20436;-68
2021/10/29 08:55:01;;;;;;;8.17;7.40;;;16.90;99.90;;;;;;5026928;28;20434;-68
2021/10/29 08:57:28;;;;;;;9.87;8.83;;;17.90;99.90;;;;;;5025722;28;20199;-67
2021/10/29 08:59:55;;;;;;;11.13;9.93;;;18.70;99.90;;;;;;5008141;28;20438;-67
2021/10/29 09:02:25;;;;;;;8.80;8.10;;;18.70;99.90;;;;;;5010059;28;20443;-66
2021/10/29 09:05:41;;;;;;;9.33;8.53;;;18.50;95.40;;;;;;5010467;28;21030;-67
2021/10/29 09:07:54;;;;;;;8.83;7.97;;;18.70;93.10;;;;;;5004023;28;20502;-69
2021/10/29 09:16:31;;;;;;;8.83;7.83;;;19.70;80.00;;;;;;5031842;28;20958;-70
2021/10/29 09:32:56;;;;;;;8.17;7.57;;;22.60;57.80;;;;;;5022071;28;20500;-69
2021/10/29 09:35:24;;;;;;;7.07;6.47;;;23.40;54.90;;;;;;5008756;28;20941;-70
2021/10/29 09:37:55;;;;;;;7.33;6.73;;;23.40;52.30;;;;;;5014586;28;20476;-70
2021/10/29 09:40:21;;;;;;;8.97;8.17;;;23.30;51.10;;;;;;5033388;28;20434;-69
2021/10/29 09:42:49;;;;;;;8.27;7.57;;;24.20;49.20;;;;;;5041774;28;20796;-70
2021/10/29 09:45:23;;;;;;;8.03;7.43;;;25.00;47.60;;;;;;5007780;28;20187;-69
2021/10/29 09:48:06;;;;;;;8.37;7.70;;;26.10;45.60;;;;;;5006481;28;20488;-70
2021/10/29 09:50:35;;;;;;;8.20;7.50;;;27.30;43.50;;;;;;5009349;28;20960;-69
2021/10/29 09:53:07;;;;;;;7.30;6.80;;;28.10;39.00;;;;;;5007787;28;20456;-69
2021/10/29 09:58:12;;;;;;;7.90;7.30;;;28.80;36.20;;;;;;5022728;28;20528;-68
2021/10/29 10:00:37;;;;;;;11.07;10.27;;;28.90;35.00;;;;;;5027468;28;20544;-70
2021/10/29 10:03:04;;;;;;;8.17;7.57;;;29.10;35.30;;;;;;5027715;28;20524;-70
2021/10/29 10:05:30;;;;;;;8.10;7.40;;;29.40;33.90;;;;;;5026910;28;20323;-68
2021/10/29 10:07:56;;;;;;;8.33;7.63;;;29.80;33.10;;;;;;5026258;28;20617;-69
2021/10/29 10:10:22;;;;;;;8.97;8.17;;;30.20;31.60;;;;;;5024482;28;20213;-67
2021/10/29 10:12:49;;;;;;;8.07;7.47;;;30.20;30.90;;;;;;5028973;28;20946;-70
2021/10/29 10:15:14;;;;;;;7.30;6.70;;;29.90;31.00;;;;;;5026112;28;20715;-70
2021/10/29 10:17:41;;;;;;;9.70;8.90;;;29.70;31.20;;;;;;5027549;28;20436;-69
2021/10/29 10:20:08;;;;;;;8.40;7.80;;;29.30;31.60;;;;;;5024184;28;20319;-69
2021/10/29 10:22:44;;;;;;;8.70;8.07;;;29.20;32.30;;;;;;5025843;28;20868;-69
2021/10/29 10:25:39;;;;;;;7.20;6.60;;;29.70;33.00;;;;;;5025324;28;20533;-71
2021/10/29 10:47:03;;;;;;;7.20;6.60;;;32.90;26.60;;;;;;5009211;28;20258;-75
2021/10/29 10:49:35;;;;;;;7.10;6.30;;;32.60;26.30;;;;;;5009345;28;20773;-74
2021/10/29 10:52:11;;;;;;;7.80;7.00;;;32.70;26.30;;;;;;5017283;28;20449;-75
2021/10/29 10:54:50;;;;;;;6.63;6.13;;;32.70;26.40;;;;;;5007660;28;20849;-69
2021/10/29 11:00:25;;;;;;;5.97;5.57;;;32.60;26.20;;;;;;5028534;28;20434;-69
2021/10/29 11:05:44;;;;;;;6.47;5.97;;;32.90;25.70;;;;;;5004335;28;20501;-72
2021/10/29 11:11:03;;;;;;;6.63;6.03;;;33.10;25.00;;;;;;5024052;28;20426;-69
2021/10/29 11:13:44;;;;;;;6.10;5.70;;;33.30;25.50;;;;;;5019889;28;20445;-68
2021/10/29 11:16:14;;;;;;;5.43;4.90;;;33.40;25.00;;;;;;5005661;28;20434;-69
2021/10/29 11:19:17;;;;;;;6.40;5.83;;;33.60;25.20;;;;;;5004711;28;20838;-68
2021/10/29 11:21:51;;;;;;;6.30;5.90;;;34.00;25.10;;;;;;5013417;28;20442;-70
2021/10/29 11:24:30;;;;;;;6.90;6.30;;;34.40;24.90;;;;;;5026354;28;20429;-69
2021/10/29 11:27:05;;;;;;;5.50;4.97;;;34.80;24.00;;;;;;5006507;28;20876;-70
2021/10/29 11:29:32;;;;;;;6.90;6.23;;;35.50;24.60;;;;;;5004215;28;20432;-69
2021/10/29 11:31:58;;;;;;;6.53;6.00;;;36.30;23.70;;;;;;5004320;28;20438;-71
2021/10/29 11:34:24;;;;;;;6.77;6.20;;;36.50;22.60;;;;;;5008048;28;20450;-69
2021/10/29 11:36:53;;;;;;;6.10;5.67;;;36.50;22.70;;;;;;5004990;28;20496;-68
2021/10/29 11:39:24;;;;;;;7.37;6.83;;;36.70;22.80;;;;;;5002544;28;20219;-69
2021/10/29 11:41:51;;;;;;;5.30;4.80;;;37.00;22.50;;;;;;5007396;28;20848;-68
2021/10/29 11:44:25;;;;;;;6.13;5.63;;;37.30;22.40;;;;;;5005485;28;20525;-69
2021/10/29 11:46:54;;;;;;;6.13;5.53;;;37.40;22.30;;;;;;5002742;28;20554;-68
2021/10/29 11:49:25;;;;;;;5.67;5.17;;;37.60;22.00;;;;;;5001691;28;20503;-69
2021/10/29 11:51:53;;;;;;;5.30;4.90;;;37.80;21.90;;;;;;5013201;28;20445;-71
2021/10/29 12:05:47;;;;;;;4.73;4.33;;;39.20;20.30;;;;;;5024127;28;20430;-70
2021/10/29 12:07:33;;;;;;;6.10;5.67;;;39.40;19.60;;;;;;5019956;28;20450;-71
2021/10/29 12:10:07;;;;;;;6.00;5.60;;;39.20;19.50;;;;;;5005412;28;20525;-69
2021/10/29 12:12:36;;;;;;;5.30;4.83;;;38.90;19.60;;;;;;5002724;28;20432;-69
2021/10/29 12:15:15;;;;;;;5.23;4.83;;;39.00;20.00;;;;;;5011114;28;20987;-69
2021/10/29 12:17:55;;;;;;;5.80;5.40;;;39.30;19.70;;;;;;5026273;28;20579;-69
2021/10/29 12:20:26;;;;;;;6.67;6.17;;;39.50;19.10;;;;;;5020744;28;20874;-69
2021/10/29 12:23:00;;;;;;;7.17;6.47;;;39.70;19.30;;;;;;5004371;28;20439;-69
2021/10/29 12:25:36;;;;;;;8.00;7.23;;;39.60;18.80;;;;;;5004997;28;20489;-69
2021/10/29 13:03:25;;;;;;;5.27;4.87;;;39.70;18.10;;;;;;5025403;28;20951;-70
2021/10/29 13:05:58;;;;;;;4.50;4.20;;;39.90;18.40;;;;;;5035983;28;20478;-68
2021/10/29 13:08:26;;;;;;;6.03;5.53;;;40.10;18.20;;;;;;5039849;28;20456;-70
2021/10/29 13:10:58;;;;;;;5.93;5.53;;;40.10;18.00;;;;;;5043879;28;21004;-69
2021/10/29 13:13:30;;;;;;;4.80;4.50;;;40.10;17.70;;;;;;5046446;28;20425;-69
2021/10/29 13:16:05;;;;;;;5.13;4.70;;;40.00;17.90;;;;;;5046296;28;20522;-68
2021/10/29 13:18:44;;;;;;;5.33;4.93;;;40.10;17.90;;;;;;5035546;28;20475;-68
2021/10/29 13:24:30;;;;;;;4.17;3.87;;;40.70;17.60;;;;;;5031596;28;20452;-68
2021/10/29 13:27:19;;;;;;;4.40;4.10;;;40.80;17.10;;;;;;5044101;28;21009;-69
2021/10/29 13:38:16;;;;;;;4.93;4.53;;;41.60;16.60;;;;;;5006577;28;20486;-69
2021/10/29 13:50:28;;;;;;;4.30;3.90;;;40.60;16.90;;;;;;5029772;28;20436;-69
2021/10/29 13:51:58;;;;;;;3.63;3.33;;;39.10;17.50;;;;;;5026675;28;20476;-69
2021/10/29 13:57:12;;;;;;;3.30;3.10;;;38.20;18.20;;;;;;5027504;28;20577;-69
2021/10/29 14:30:08;;;;;;;5.70;5.20;;;33.70;23.20;;;;;;5040390;28;20443;-69
2021/10/29 14:35:26;;;;;;;6.63;6.00;;;30.20;26.10;;;;;;5029301;28;20469;-69
2021/10/29 14:40:42;;;;;;;5.80;5.40;;;27.80;30.30;;;;;;5026447;28;20634;-67
2021/10/29 14:45:37;;;;;;;6.60;6.00;;;27.20;32.20;;;;;;5027256;28;20525;-68
2021/10/29 15:01:57;;;;;;;6.10;5.70;;;25.40;34.10;;;;;;5029645;28;20479;-69
2021/10/29 15:04:27;;;;;;;6.07;5.57;;;24.40;36.20;;;;;;5037535;28;20434;-70
2021/10/29 15:14:46;;;;;;;6.13;5.70;;;23.00;37.70;;;;;;5034973;28;20476;-69
2021/10/29 15:15:37;;;;;;;6.43;5.83;;;20.40;43.10;;;;;;5027537;28;20472;-68
2021/10/29 15:28:37;;;;;;;6.40;5.83;;;17.70;48.90;;;;;;5026906;28;20872;-69
2021/10/29 15:41:06;;;;;;;5.90;5.30;;;17.00;50.40;;;;;;5037351;28;20600;-69
2021/10/29 15:42:27;;;;;;;10.57;7.47;;;16.30;54.10;;;;;;4982577;28;20531;-68
2021/10/29 15:48:10;;;;;;;6.00;5.50;;;15.80;55.80;;;;;;5015130;28;20808;-69
2021/10/29 15:50:36;;;;;;;7.00;6.40;;;15.50;56.20;;;;;;5033980;28;20510;-68
2021/10/29 15:53:08;;;;;;;7.03;6.43;;;15.50;56.80;;;;;;5046500;28;20535;-68
2021/10/29 15:55:39;;;;;;;6.93;6.30;;;15.10;57.30;;;;;;5029580;28;20464;-70
2021/10/29 16:03:22;;;;;;;5.17;4.67;;;14.80;60.50;;;;;;5043409;28;20429;-68
2021/10/29 16:19:29;;;;;;;7.20;6.50;;;13.10;66.50;;;;;;5022775;28;20776;-69
2021/10/29 16:21:55;;;;;;;8.00;6.00;;;12.60;67.70;;;;;;5025630;28;20473;-68
2021/10/29 16:24:20;;;;;;;6.37;5.80;;;12.70;69.00;;;;;;5017382;28;20470;-68
2021/10/29 16:26:48;;;;;;;8.40;6.87;;;12.80;70.20;;;;;;5021646;28;20273;-68
2021/10/29 16:29:18;;;;;;;6.70;5.70;;;12.30;71.30;;;;;;5007376;28;20199;-69
2021/10/29 16:31:46;;;;;;;7.17;6.47;;;12.00;72.40;;;;;;5028257;28;21006;-71
2021/10/29 16:34:12;;;;;;;7.23;6.57;;;11.90;74.50;;;;;;5030802;28;20570;-70
2021/10/29 16:36:38;;;;;;;5.87;5.37;;;12.00;76.60;;;;;;5016703;28;20974;-68
2021/10/29 16:39:04;;;;;;;8.10;6.87;;;11.70;77.60;;;;;;5023409;28;20862;-71
2021/10/29 16:41:30;;;;;;;8.03;7.33;;;11.70;81.30;;;;;;5025849;28;20793;-69
2021/10/29 16:43:55;;;;;;;10.83;9.83;;;11.40;83.20;;;;;;5018871;28;20447;-68
2021/10/29 16:46:21;;;;;;;9.53;8.63;;;11.30;85.80;;;;;;5018292;28;20182;-70
2021/10/29 16:48:47;;;;;;;7.10;6.40;;;11.20;88.80;;;;;;5034855;28;20196;-68
2021/10/29 16:51:14;;;;;;;5.70;5.20;;;11.20;90.40;;;;;;5043519;28;20191;-69
2021/10/29 16:53:44;;;;;;;5.55;5.05;;;11.00;91.70;;;;;;5038598;28;20645;-70
2021/10/29 16:56:12;;;;;;;7.25;6.28;;;10.90;92.40;;;;;;5044382;28;20243;-70
2021/10/29 16:58:37;;;;;;;9.13;7.90;;;10.60;94.00;;;;;;5016919;28;20281;-72
2021/10/29 17:01:03;;;;;;;11.83;10.60;;;10.40;96.10;;;;;;5024733;28;20278;-70
2021/10/29 17:03:29;;;;;;;12.43;11.10;;;10.60;98.20;;;;;;5028795;28;20778;-70
2021/10/29 17:05:55;;;;;;;13.37;10.70;;;10.20;99.90;;;;;;5026263;28;20245;-71
2021/10/29 17:08:21;;;;;;;12.10;10.90;;;10.20;99.90;;;;;;5017555;28;20189;-70
2021/10/29 17:10:47;;;;;;;12.60;9.50;;;10.10;99.90;;;;;;5024221;28;20658;-71
2021/10/29 17:13:13;;;;;;;7.40;6.70;;;10.30;99.90;;;;;;5039281;28;20771;-72
2021/10/29 17:15:39;;;;;;;6.40;5.90;;;10.20;99.90;;;;;;5044138;28;20294;-67
2021/10/29 17:18:05;;;;;;;6.30;5.80;;;10.00;99.90;;;;;;5019936;28;20482;-73
2021/10/29 17:20:32;;;;;;;7.57;6.97;;;9.90;99.90;;;;;;5007869;28;20201;-73
2021/10/29 17:22:58;;;;;;;8.77;7.97;;;9.90;99.90;;;;;;5029321;28;20287;-71